sensor_id;sensor_type;location;lat;lon;timestamp;P1;durP1;ratioP1;P2;durP2;ratioP2
49870;SDS011;35767;52.322;9.122;2023-08-08T00:03:31;2.58;;;2.03;;
49870;SDS011;35767;52.322;9.122;2023-08-08T00:06:33;2.53;;;2.33;;
49870;SDS011;35767;52.322;9.122;2023-08-08T00:09:34;3.58;;;2.22;;
49870;SDS011;35767;52.322;9.122;2023-08-08T00:15:39;2.30;;;2.10;;
49870;SDS011;35767;52.322;9.122;2023-08-08T00:18:41;3.92;;;2.13;;
49870;SDS011;35767;52.322;9.122;2023-08-08T00:24:44;3.58;;;2.17;;
49870;SDS011;35767;52.322;9.122;2023-08-08T00:30:48;2.60;;;2.40;;
49870;SDS011;35767;52.322;9.122;2023-08-08T00:33:50;2.92;;;2.20;;
49870;SDS011;35767;52.322;9.122;2023-08-08T00:39:53;6.05;;;2.05;;
49870;SDS011;35767;52.322;9.122;2023-08-08T00:42:55;2.83;;;2.05;;
49870;SDS011;35767;52.322;9.122;2023-08-08T00:45:58;3.45;;;2.45;;
49870;SDS011;35767;52.322;9.122;2023-08-08T00:49:00;4.50;;;2.33;;
49870;SDS011;35767;52.322;9.122;2023-08-08T00:55:03;2.78;;;2.38;;
49870;SDS011;35767;52.322;9.122;2023-08-08T00:58:06;2.20;;;1.98;;
49870;SDS011;35767;52.322;9.122;2023-08-08T01:01:14;4.97;;;3.03;;
49870;SDS011;35767;52.322;9.122;2023-08-08T01:04:19;2.40;;;2.20;;
49870;SDS011;35767;52.322;9.122;2023-08-08T01:07:24;3.30;;;2.55;;
49870;SDS011;35767;52.322;9.122;2023-08-08T01:10:32;3.25;;;2.50;;
49870;SDS011;35767;52.322;9.122;2023-08-08T01:13:35;2.97;;;2.30;;
49870;SDS011;35767;52.322;9.122;2023-08-08T01:16:46;2.70;;;2.50;;
49870;SDS011;35767;52.322;9.122;2023-08-08T01:19:48;3.53;;;2.47;;
49870;SDS011;35767;52.322;9.122;2023-08-08T01:22:51;2.75;;;2.47;;
49870;SDS011;35767;52.322;9.122;2023-08-08T01:26:07;4.43;;;3.10;;
49870;SDS011;35767;52.322;9.122;2023-08-08T01:29:09;3.58;;;2.83;;
49870;SDS011;35767;52.322;9.122;2023-08-08T01:35:13;2.78;;;2.58;;
49870;SDS011;35767;52.322;9.122;2023-08-08T01:38:17;3.03;;;2.72;;
49870;SDS011;35767;52.322;9.122;2023-08-08T01:41:24;3.20;;;2.90;;
49870;SDS011;35767;52.322;9.122;2023-08-08T01:44:27;3.53;;;2.88;;
49870;SDS011;35767;52.322;9.122;2023-08-08T01:47:32;2.85;;;2.65;;
49870;SDS011;35767;52.322;9.122;2023-08-08T01:50:34;2.83;;;2.60;;
49870;SDS011;35767;52.322;9.122;2023-08-08T01:53:38;2.92;;;2.70;;
49870;SDS011;35767;52.322;9.122;2023-08-08T01:56:43;6.55;;;2.90;;
49870;SDS011;35767;52.322;9.122;2023-08-08T01:59:45;5.03;;;2.80;;
49870;SDS011;35767;52.322;9.122;2023-08-08T02:02:48;3.40;;;2.50;;
49870;SDS011;35767;52.322;9.122;2023-08-08T02:05:50;3.13;;;2.92;;
49870;SDS011;35767;52.322;9.122;2023-08-08T02:11:55;3.00;;;2.60;;
49870;SDS011;35767;52.322;9.122;2023-08-08T02:14:57;3.30;;;2.83;;
49870;SDS011;35767;52.322;9.122;2023-08-08T02:21:00;3.78;;;3.13;;
49870;SDS011;35767;52.322;9.122;2023-08-08T02:27:07;3.65;;;2.80;;
49870;SDS011;35767;52.322;9.122;2023-08-08T02:30:12;3.40;;;2.80;;
49870;SDS011;35767;52.322;9.122;2023-08-08T02:33:17;5.22;;;2.30;;
49870;SDS011;35767;52.322;9.122;2023-08-08T02:39:23;2.88;;;2.67;;
49870;SDS011;35767;52.322;9.122;2023-08-08T02:42:26;3.97;;;2.80;;
49870;SDS011;35767;52.322;9.122;2023-08-08T02:45:28;4.22;;;2.80;;
49870;SDS011;35767;52.322;9.122;2023-08-08T02:48:30;3.80;;;2.45;;
49870;SDS011;35767;52.322;9.122;2023-08-08T02:51:33;5.03;;;3.30;;
49870;SDS011;35767;52.322;9.122;2023-08-08T02:54:34;3.28;;;2.92;;
49870;SDS011;35767;52.322;9.122;2023-08-08T02:57:37;2.88;;;2.67;;
49870;SDS011;35767;52.322;9.122;2023-08-08T03:00:40;4.53;;;3.53;;
49870;SDS011;35767;52.322;9.122;2023-08-08T03:03:45;4.00;;;2.80;;
49870;SDS011;35767;52.322;9.122;2023-08-08T03:06:48;5.53;;;2.90;;
49870;SDS011;35767;52.322;9.122;2023-08-08T03:09:50;2.92;;;2.45;;
49870;SDS011;35767;52.322;9.122;2023-08-08T03:12:53;2.88;;;2.60;;
49870;SDS011;35767;52.322;9.122;2023-08-08T03:15:56;2.58;;;2.38;;
49870;SDS011;35767;52.322;9.122;2023-08-08T03:18:58;3.40;;;2.80;;
49870;SDS011;35767;52.322;9.122;2023-08-08T03:28:05;5.35;;;2.92;;
49870;SDS011;35767;52.322;9.122;2023-08-08T03:31:07;3.75;;;2.42;;
49870;SDS011;35767;52.322;9.122;2023-08-08T03:37:11;3.00;;;2.60;;
49870;SDS011;35767;52.322;9.122;2023-08-08T03:43:15;2.97;;;2.65;;
49870;SDS011;35767;52.322;9.122;2023-08-08T03:46:17;3.95;;;2.38;;
49870;SDS011;35767;52.322;9.122;2023-08-08T03:52:21;2.60;;;2.40;;
49870;SDS011;35767;52.322;9.122;2023-08-08T03:55:23;3.10;;;2.75;;
49870;SDS011;35767;52.322;9.122;2023-08-08T03:58:26;2.80;;;2.60;;
49870;SDS011;35767;52.322;9.122;2023-08-08T04:01:28;2.40;;;2.25;;
49870;SDS011;35767;52.322;9.122;2023-08-08T04:07:31;3.72;;;2.75;;
49870;SDS011;35767;52.322;9.122;2023-08-08T04:10:33;3.35;;;2.40;;
49870;SDS011;35767;52.322;9.122;2023-08-08T04:16:38;4.05;;;2.33;;
49870;SDS011;35767;52.322;9.122;2023-08-08T04:19:39;4.25;;;2.47;;
49870;SDS011;35767;52.322;9.122;2023-08-08T04:22:41;4.13;;;2.60;;
49870;SDS011;35767;52.322;9.122;2023-08-08T04:28:45;2.83;;;2.63;;
49870;SDS011;35767;52.322;9.122;2023-08-08T04:31:47;4.68;;;3.47;;
49870;SDS011;35767;52.322;9.122;2023-08-08T04:37:50;3.70;;;2.95;;
49870;SDS011;35767;52.322;9.122;2023-08-08T04:43:55;5.03;;;3.58;;
49870;SDS011;35767;52.322;9.122;2023-08-08T04:46:57;6.07;;;3.13;;
49870;SDS011;35767;52.322;9.122;2023-08-08T04:50:00;4.45;;;2.92;;
49870;SDS011;35767;52.322;9.122;2023-08-08T04:53:02;4.57;;;2.95;;
49870;SDS011;35767;52.322;9.122;2023-08-08T04:56:04;6.13;;;3.10;;
49870;SDS011;35767;52.322;9.122;2023-08-08T04:59:09;3.40;;;3.10;;
49870;SDS011;35767;52.322;9.122;2023-08-08T05:02:10;4.15;;;3.08;;
49870;SDS011;35767;52.322;9.122;2023-08-08T05:08:16;4.30;;;3.30;;
49870;SDS011;35767;52.322;9.122;2023-08-08T05:11:17;3.67;;;3.38;;
49870;SDS011;35767;52.322;9.122;2023-08-08T05:17:22;3.63;;;3.33;;
49870;SDS011;35767;52.322;9.122;2023-08-08T05:20:24;4.22;;;3.40;;
49870;SDS011;35767;52.322;9.122;2023-08-08T05:23:31;3.95;;;3.55;;
49870;SDS011;35767;52.322;9.122;2023-08-08T05:26:39;5.20;;;3.10;;
49870;SDS011;35767;52.322;9.122;2023-08-08T05:29:43;6.00;;;3.35;;
49870;SDS011;35767;52.322;9.122;2023-08-08T05:32:45;4.15;;;3.20;;
49870;SDS011;35767;52.322;9.122;2023-08-08T05:35:46;3.85;;;3.08;;
49870;SDS011;35767;52.322;9.122;2023-08-08T05:38:50;3.50;;;3.20;;
49870;SDS011;35767;52.322;9.122;2023-08-08T05:41:56;5.40;;;3.53;;
49870;SDS011;35767;52.322;9.122;2023-08-08T05:44:59;5.85;;;3.88;;
49870;SDS011;35767;52.322;9.122;2023-08-08T05:48:00;4.97;;;4.10;;
49870;SDS011;35767;52.322;9.122;2023-08-08T05:51:04;4.18;;;3.72;;
49870;SDS011;35767;52.322;9.122;2023-08-08T05:54:06;5.18;;;4.50;;
49870;SDS011;35767;52.322;9.122;2023-08-08T05:57:11;4.03;;;3.65;;
49870;SDS011;35767;52.322;9.122;2023-08-08T06:00:15;6.30;;;3.97;;
49870;SDS011;35767;52.322;9.122;2023-08-08T06:03:17;4.63;;;3.90;;
49870;SDS011;35767;52.322;9.122;2023-08-08T06:06:18;6.88;;;4.13;;
49870;SDS011;35767;52.322;9.122;2023-08-08T06:09:20;5.38;;;4.15;;
49870;SDS011;35767;52.322;9.122;2023-08-08T06:12:22;5.18;;;4.00;;
49870;SDS011;35767;52.322;9.122;2023-08-08T06:15:25;10.32;;;4.25;;
49870;SDS011;35767;52.322;9.122;2023-08-08T06:18:27;8.27;;;4.05;;
49870;SDS011;35767;52.322;9.122;2023-08-08T06:21:28;4.88;;;4.03;;
49870;SDS011;35767;52.322;9.122;2023-08-08T06:24:30;4.63;;;4.20;;
49870;SDS011;35767;52.322;9.122;2023-08-08T06:30:35;4.30;;;3.90;;
49870;SDS011;35767;52.322;9.122;2023-08-08T06:33:36;3.78;;;3.45;;
49870;SDS011;35767;52.322;9.122;2023-08-08T06:36:38;4.07;;;3.70;;
49870;SDS011;35767;52.322;9.122;2023-08-08T06:39:40;6.70;;;3.60;;
49870;SDS011;35767;52.322;9.122;2023-08-08T06:42:41;4.32;;;3.33;;
49870;SDS011;35767;52.322;9.122;2023-08-08T06:45:47;4.93;;;4.18;;
49870;SDS011;35767;52.322;9.122;2023-08-08T06:48:48;7.57;;;4.43;;
49870;SDS011;35767;52.322;9.122;2023-08-08T06:51:52;5.05;;;4.05;;
49870;SDS011;35767;52.322;9.122;2023-08-08T06:54:54;4.15;;;3.50;;
49870;SDS011;35767;52.322;9.122;2023-08-08T06:57:56;3.47;;;3.17;;
49870;SDS011;35767;52.322;9.122;2023-08-08T07:01:00;5.93;;;3.90;;
49870;SDS011;35767;52.322;9.122;2023-08-08T07:04:02;4.35;;;3.33;;
49870;SDS011;35767;52.322;9.122;2023-08-08T07:07:06;3.70;;;3.35;;
49870;SDS011;35767;52.322;9.122;2023-08-08T07:10:08;4.63;;;3.70;;
49870;SDS011;35767;52.322;9.122;2023-08-08T07:13:11;4.35;;;3.65;;
49870;SDS011;35767;52.322;9.122;2023-08-08T07:16:14;3.40;;;3.10;;
49870;SDS011;35767;52.322;9.122;2023-08-08T07:19:20;11.88;;;3.47;;
49870;SDS011;35767;52.322;9.122;2023-08-08T07:22:22;4.75;;;3.45;;
49870;SDS011;35767;52.322;9.122;2023-08-08T07:25:24;5.70;;;3.28;;
49870;SDS011;35767;52.322;9.122;2023-08-08T07:28:29;6.43;;;3.22;;
49870;SDS011;35767;52.322;9.122;2023-08-08T07:31:33;5.82;;;3.08;;
49870;SDS011;35767;52.322;9.122;2023-08-08T07:34:37;3.85;;;3.30;;
49870;SDS011;35767;52.322;9.122;2023-08-08T07:37:39;3.90;;;3.20;;
49870;SDS011;35767;52.322;9.122;2023-08-08T07:40:41;5.97;;;3.53;;
49870;SDS011;35767;52.322;9.122;2023-08-08T07:43:42;4.30;;;2.70;;
49870;SDS011;35767;52.322;9.122;2023-08-08T07:46:45;4.57;;;2.85;;
49870;SDS011;35767;52.322;9.122;2023-08-08T07:49:47;2.10;;;1.88;;
49870;SDS011;35767;52.322;9.122;2023-08-08T07:52:51;3.38;;;2.47;;
49870;SDS011;35767;52.322;9.122;2023-08-08T07:55:53;5.63;;;2.50;;
49870;SDS011;35767;52.322;9.122;2023-08-08T07:58:55;2.72;;;2.28;;
49870;SDS011;35767;52.322;9.122;2023-08-08T08:01:58;4.03;;;2.33;;
49870;SDS011;35767;52.322;9.122;2023-08-08T08:04:59;4.05;;;2.28;;
49870;SDS011;35767;52.322;9.122;2023-08-08T08:08:01;4.50;;;2.20;;
49870;SDS011;35767;52.322;9.122;2023-08-08T08:11:11;3.97;;;1.70;;
49870;SDS011;35767;52.322;9.122;2023-08-08T08:14:15;3.92;;;2.10;;
49870;SDS011;35767;52.322;9.122;2023-08-08T08:17:21;3.75;;;2.25;;
49870;SDS011;35767;52.322;9.122;2023-08-08T08:20:28;5.60;;;2.10;;
49870;SDS011;35767;52.322;9.122;2023-08-08T08:23:29;3.65;;;2.55;;
49870;SDS011;35767;52.322;9.122;2023-08-08T08:26:31;3.67;;;2.15;;
49870;SDS011;35767;52.322;9.122;2023-08-08T08:29:33;5.50;;;2.92;;
49870;SDS011;35767;52.322;9.122;2023-08-08T08:32:39;5.00;;;2.42;;
49870;SDS011;35767;52.322;9.122;2023-08-08T08:35:48;9.43;;;2.63;;
49870;SDS011;35767;52.322;9.122;2023-08-08T08:38:50;3.53;;;2.25;;
49870;SDS011;35767;52.322;9.122;2023-08-08T08:41:53;2.58;;;2.30;;
49870;SDS011;35767;52.322;9.122;2023-08-08T08:44:58;2.85;;;2.33;;
49870;SDS011;35767;52.322;9.122;2023-08-08T08:48:02;5.53;;;2.70;;
49870;SDS011;35767;52.322;9.122;2023-08-08T08:51:04;5.00;;;2.67;;
49870;SDS011;35767;52.322;9.122;2023-08-08T08:54:06;3.45;;;2.58;;
49870;SDS011;35767;52.322;9.122;2023-08-08T08:57:08;5.70;;;2.60;;
49870;SDS011;35767;52.322;9.122;2023-08-08T09:00:12;4.68;;;2.42;;
49870;SDS011;35767;52.322;9.122;2023-08-08T09:03:19;7.35;;;2.60;;
49870;SDS011;35767;52.322;9.122;2023-08-08T09:06:20;4.07;;;2.10;;
49870;SDS011;35767;52.322;9.122;2023-08-08T09:09:23;6.75;;;1.73;;
49870;SDS011;35767;52.322;9.122;2023-08-08T09:12:25;2.85;;;1.50;;
49870;SDS011;35767;52.322;9.122;2023-08-08T09:15:29;3.60;;;2.40;;
49870;SDS011;35767;52.322;9.122;2023-08-08T09:18:39;2.70;;;2.17;;
49870;SDS011;35767;52.322;9.122;2023-08-08T09:21:43;5.03;;;2.80;;
49870;SDS011;35767;52.322;9.122;2023-08-08T09:24:44;4.25;;;3.08;;
49870;SDS011;35767;52.322;9.122;2023-08-08T09:27:46;4.60;;;2.90;;
49870;SDS011;35767;52.322;9.122;2023-08-08T09:30:48;3.30;;;2.38;;
49870;SDS011;35767;52.322;9.122;2023-08-08T09:33:51;4.32;;;2.28;;
49870;SDS011;35767;52.322;9.122;2023-08-08T09:36:54;8.57;;;3.10;;
49870;SDS011;35767;52.322;9.122;2023-08-08T09:40:03;3.75;;;2.72;;
49870;SDS011;35767;52.322;9.122;2023-08-08T09:43:07;4.55;;;2.45;;
49870;SDS011;35767;52.322;9.122;2023-08-08T09:46:10;2.88;;;2.22;;
49870;SDS011;35767;52.322;9.122;2023-08-08T09:49:13;3.75;;;2.55;;
49870;SDS011;35767;52.322;9.122;2023-08-08T09:52:23;5.55;;;2.83;;
49870;SDS011;35767;52.322;9.122;2023-08-08T09:55:26;7.30;;;2.58;;
49870;SDS011;35767;52.322;9.122;2023-08-08T09:58:28;3.03;;;1.92;;
49870;SDS011;35767;52.322;9.122;2023-08-08T10:01:32;2.58;;;2.00;;
49870;SDS011;35767;52.322;9.122;2023-08-08T10:04:38;4.93;;;1.98;;
49870;SDS011;35767;52.322;9.122;2023-08-08T10:07:39;4.70;;;2.05;;
49870;SDS011;35767;52.322;9.122;2023-08-08T10:10:42;4.55;;;2.08;;
49870;SDS011;35767;52.322;9.122;2023-08-08T10:13:48;5.85;;;2.10;;
49870;SDS011;35767;52.322;9.122;2023-08-08T10:16:50;5.65;;;2.33;;
49870;SDS011;35767;52.322;9.122;2023-08-08T10:19:54;3.60;;;2.03;;
49870;SDS011;35767;52.322;9.122;2023-08-08T10:22:57;3.17;;;1.70;;
49870;SDS011;35767;52.322;9.122;2023-08-08T10:26:01;3.13;;;1.92;;
49870;SDS011;35767;52.322;9.122;2023-08-08T10:29:05;2.92;;;1.40;;
49870;SDS011;35767;52.322;9.122;2023-08-08T10:32:06;2.97;;;1.55;;
49870;SDS011;35767;52.322;9.122;2023-08-08T10:35:16;1.70;;;1.52;;
49870;SDS011;35767;52.322;9.122;2023-08-08T10:38:18;2.72;;;1.58;;
49870;SDS011;35767;52.322;9.122;2023-08-08T10:41:22;2.78;;;1.60;;
49870;SDS011;35767;52.322;9.122;2023-08-08T10:44:23;2.88;;;1.80;;
49870;SDS011;35767;52.322;9.122;2023-08-08T10:47:34;2.75;;;1.75;;
49870;SDS011;35767;52.322;9.122;2023-08-08T10:50:39;1.90;;;1.30;;
49870;SDS011;35767;52.322;9.122;2023-08-08T10:53:41;4.78;;;1.40;;
49870;SDS011;35767;52.322;9.122;2023-08-08T10:56:49;2.30;;;1.27;;
49870;SDS011;35767;52.322;9.122;2023-08-08T10:59:51;6.75;;;1.67;;
49870;SDS011;35767;52.322;9.122;2023-08-08T11:02:53;5.05;;;1.85;;
49870;SDS011;35767;52.322;9.122;2023-08-08T11:05:59;3.67;;;1.65;;
49870;SDS011;35767;52.322;9.122;2023-08-08T11:09:04;4.85;;;1.90;;
49870;SDS011;35767;52.322;9.122;2023-08-08T11:12:12;3.92;;;2.08;;
49870;SDS011;35767;52.322;9.122;2023-08-08T11:15:16;2.50;;;1.48;;
49870;SDS011;35767;52.322;9.122;2023-08-08T11:18:20;1.95;;;1.73;;
49870;SDS011;35767;52.322;9.122;2023-08-08T11:21:24;2.58;;;1.63;;
49870;SDS011;35767;52.322;9.122;2023-08-08T11:24:25;2.20;;;1.42;;
49870;SDS011;35767;52.322;9.122;2023-08-08T11:27:34;3.92;;;1.63;;
49870;SDS011;35767;52.322;9.122;2023-08-08T11:30:40;4.47;;;2.45;;
49870;SDS011;35767;52.322;9.122;2023-08-08T11:33:48;3.90;;;1.48;;
49870;SDS011;35767;52.322;9.122;2023-08-08T11:36:53;2.88;;;1.40;;
49870;SDS011;35767;52.322;9.122;2023-08-08T11:39:55;3.15;;;1.65;;
49870;SDS011;35767;52.322;9.122;2023-08-08T11:42:56;2.50;;;1.30;;
49870;SDS011;35767;52.322;9.122;2023-08-08T11:45:59;3.25;;;1.67;;
49870;SDS011;35767;52.322;9.122;2023-08-08T11:49:10;3.75;;;1.95;;
49870;SDS011;35767;52.322;9.122;2023-08-08T11:52:13;4.03;;;1.80;;
49870;SDS011;35767;52.322;9.122;2023-08-08T11:55:14;3.97;;;1.85;;
49870;SDS011;35767;52.322;9.122;2023-08-08T11:58:16;2.08;;;1.58;;
49870;SDS011;35767;52.322;9.122;2023-08-08T12:01:20;1.92;;;1.20;;
49870;SDS011;35767;52.322;9.122;2023-08-08T12:04:23;4.00;;;1.52;;
49870;SDS011;35767;52.322;9.122;2023-08-08T12:07:31;2.83;;;1.45;;
49870;SDS011;35767;52.322;9.122;2023-08-08T12:10:36;2.25;;;1.63;;
49870;SDS011;35767;52.322;9.122;2023-08-08T12:13:40;4.00;;;1.63;;
49870;SDS011;35767;52.322;9.122;2023-08-08T12:16:43;2.92;;;1.30;;
49870;SDS011;35767;52.322;9.122;2023-08-08T12:19:45;4.15;;;1.52;;
49870;SDS011;35767;52.322;9.122;2023-08-08T12:22:48;1.80;;;1.15;;
49870;SDS011;35767;52.322;9.122;2023-08-08T12:25:51;3.15;;;1.30;;
49870;SDS011;35767;52.322;9.122;2023-08-08T12:28:53;2.00;;;0.80;;
49870;SDS011;35767;52.322;9.122;2023-08-08T12:31:57;4.85;;;1.30;;
49870;SDS011;35767;52.322;9.122;2023-08-08T12:35:01;3.20;;;1.40;;
49870;SDS011;35767;52.322;9.122;2023-08-08T12:38:04;1.95;;;0.70;;
49870;SDS011;35767;52.322;9.122;2023-08-08T12:41:06;3.60;;;0.95;;
49870;SDS011;35767;52.322;9.122;2023-08-08T12:44:07;1.60;;;0.93;;
49870;SDS011;35767;52.322;9.122;2023-08-08T12:47:09;1.23;;;1.10;;
49870;SDS011;35767;52.322;9.122;2023-08-08T12:50:13;2.05;;;1.05;;
49870;SDS011;35767;52.322;9.122;2023-08-08T12:53:16;2.70;;;1.00;;
49870;SDS011;35767;52.322;9.122;2023-08-08T12:56:21;1.55;;;1.00;;
49870;SDS011;35767;52.322;9.122;2023-08-08T12:59:23;1.77;;;1.13;;
49870;SDS011;35767;52.322;9.122;2023-08-08T13:02:27;1.90;;;1.30;;
49870;SDS011;35767;52.322;9.122;2023-08-08T13:05:29;2.78;;;1.30;;
49870;SDS011;35767;52.322;9.122;2023-08-08T13:08:32;2.35;;;1.40;;
49870;SDS011;35767;52.322;9.122;2023-08-08T13:11:36;2.22;;;1.10;;
49870;SDS011;35767;52.322;9.122;2023-08-08T13:14:37;4.32;;;1.48;;
49870;SDS011;35767;52.322;9.122;2023-08-08T13:17:42;3.00;;;1.30;;
49870;SDS011;35767;52.322;9.122;2023-08-08T13:20:44;4.25;;;1.30;;
49870;SDS011;35767;52.322;9.122;2023-08-08T13:23:47;2.25;;;1.20;;
49870;SDS011;35767;52.322;9.122;2023-08-08T13:26:52;2.58;;;0.98;;
49870;SDS011;35767;52.322;9.122;2023-08-08T13:29:54;2.65;;;1.02;;
49870;SDS011;35767;52.322;9.122;2023-08-08T13:32:56;3.47;;;2.10;;
49870;SDS011;35767;52.322;9.122;2023-08-08T13:36:00;3.25;;;1.45;;
49870;SDS011;35767;52.322;9.122;2023-08-08T13:39:03;1.42;;;0.90;;
49870;SDS011;35767;52.322;9.122;2023-08-08T13:42:05;4.53;;;1.13;;
49870;SDS011;35767;52.322;9.122;2023-08-08T13:45:08;0.90;;;0.90;;
49870;SDS011;35767;52.322;9.122;2023-08-08T13:48:10;1.58;;;0.65;;
49870;SDS011;35767;52.322;9.122;2023-08-08T13:51:12;1.35;;;0.77;;
49870;SDS011;35767;52.322;9.122;2023-08-08T13:54:15;5.25;;;0.75;;
49870;SDS011;35767;52.322;9.122;2023-08-08T13:57:17;1.02;;;0.80;;
49870;SDS011;35767;52.322;9.122;2023-08-08T14:00:20;1.17;;;0.60;;
49870;SDS011;35767;52.322;9.122;2023-08-08T14:03:21;1.88;;;0.70;;
49870;SDS011;35767;52.322;9.122;2023-08-08T14:06:26;1.75;;;0.98;;
49870;SDS011;35767;52.322;9.122;2023-08-08T14:09:28;5.72;;;0.65;;
49870;SDS011;35767;52.322;9.122;2023-08-08T14:12:32;0.52;;;0.52;;
49870;SDS011;35767;52.322;9.122;2023-08-08T14:15:33;0.90;;;0.82;;
49870;SDS011;35767;52.322;9.122;2023-08-08T14:18:40;1.67;;;0.82;;
49870;SDS011;35767;52.322;9.122;2023-08-08T14:21:42;1.73;;;1.30;;
49870;SDS011;35767;52.322;9.122;2023-08-08T14:24:45;1.85;;;0.90;;
49870;SDS011;35767;52.322;9.122;2023-08-08T14:27:47;4.43;;;1.13;;
49870;SDS011;35767;52.322;9.122;2023-08-08T14:30:50;1.48;;;0.95;;
49870;SDS011;35767;52.322;9.122;2023-08-08T14:33:52;1.38;;;0.70;;
49870;SDS011;35767;52.322;9.122;2023-08-08T14:36:53;1.58;;;0.55;;
49870;SDS011;35767;52.322;9.122;2023-08-08T14:39:56;1.00;;;0.85;;
49870;SDS011;35767;52.322;9.122;2023-08-08T14:43:00;0.82;;;0.65;;
49870;SDS011;35767;52.322;9.122;2023-08-08T14:46:01;1.05;;;0.85;;
49870;SDS011;35767;52.322;9.122;2023-08-08T14:49:04;1.15;;;0.60;;
49870;SDS011;35767;52.322;9.122;2023-08-08T14:52:05;4.07;;;0.85;;
49870;SDS011;35767;52.322;9.122;2023-08-08T14:55:09;0.82;;;0.80;;
49870;SDS011;35767;52.322;9.122;2023-08-08T14:58:10;0.68;;;0.55;;
49870;SDS011;35767;52.322;9.122;2023-08-08T15:01:12;1.10;;;0.80;;
49870;SDS011;35767;52.322;9.122;2023-08-08T15:04:14;0.73;;;0.55;;
49870;SDS011;35767;52.322;9.122;2023-08-08T15:07:16;0.80;;;0.80;;
49870;SDS011;35767;52.322;9.122;2023-08-08T15:10:19;1.63;;;0.80;;
49870;SDS011;35767;52.322;9.122;2023-08-08T15:13:21;1.33;;;0.90;;
49870;SDS011;35767;52.322;9.122;2023-08-08T15:16:23;0.80;;;0.80;;
49870;SDS011;35767;52.322;9.122;2023-08-08T15:19:25;1.23;;;1.13;;
49870;SDS011;35767;52.322;9.122;2023-08-08T15:22:26;1.65;;;0.80;;
49870;SDS011;35767;52.322;9.122;2023-08-08T15:25:29;1.45;;;0.90;;
49870;SDS011;35767;52.322;9.122;2023-08-08T15:28:31;1.55;;;0.88;;
49870;SDS011;35767;52.322;9.122;2023-08-08T15:31:33;1.17;;;0.93;;
49870;SDS011;35767;52.322;9.122;2023-08-08T15:34:35;1.90;;;1.08;;
49870;SDS011;35767;52.322;9.122;2023-08-08T15:37:37;1.33;;;0.70;;
49870;SDS011;35767;52.322;9.122;2023-08-08T15:40:40;3.97;;;1.00;;
49870;SDS011;35767;52.322;9.122;2023-08-08T15:43:42;1.50;;;1.00;;
49870;SDS011;35767;52.322;9.122;2023-08-08T15:46:44;1.23;;;0.80;;
49870;SDS011;35767;52.322;9.122;2023-08-08T15:49:46;0.98;;;0.85;;
49870;SDS011;35767;52.322;9.122;2023-08-08T15:52:48;1.63;;;0.85;;
49870;SDS011;35767;52.322;9.122;2023-08-08T15:55:51;1.23;;;1.08;;
49870;SDS011;35767;52.322;9.122;2023-08-08T15:58:53;1.08;;;0.90;;
49870;SDS011;35767;52.322;9.122;2023-08-08T16:01:54;1.95;;;0.80;;
49870;SDS011;35767;52.322;9.122;2023-08-08T16:04:56;1.10;;;1.00;;
49870;SDS011;35767;52.322;9.122;2023-08-08T16:07:57;1.65;;;1.30;;
49870;SDS011;35767;52.322;9.122;2023-08-08T16:11:01;1.30;;;1.10;;
49870;SDS011;35767;52.322;9.122;2023-08-08T16:14:03;3.67;;;0.90;;
49870;SDS011;35767;52.322;9.122;2023-08-08T16:17:05;0.95;;;0.80;;
49870;SDS011;35767;52.322;9.122;2023-08-08T16:20:09;1.20;;;0.90;;
49870;SDS011;35767;52.322;9.122;2023-08-08T16:23:11;2.53;;;1.05;;
49870;SDS011;35767;52.322;9.122;2023-08-08T16:26:14;2.05;;;1.10;;
49870;SDS011;35767;52.322;9.122;2023-08-08T16:29:17;1.10;;;1.00;;
49870;SDS011;35767;52.322;9.122;2023-08-08T16:32:18;1.20;;;1.10;;
49870;SDS011;35767;52.322;9.122;2023-08-08T16:35:20;1.17;;;0.88;;
49870;SDS011;35767;52.322;9.122;2023-08-08T16:38:23;2.15;;;1.20;;
49870;SDS011;35767;52.322;9.122;2023-08-08T16:41:27;1.15;;;1.08;;
49870;SDS011;35767;52.322;9.122;2023-08-08T16:44:28;1.73;;;1.05;;
49870;SDS011;35767;52.322;9.122;2023-08-08T16:47:30;1.58;;;1.00;;
49870;SDS011;35767;52.322;9.122;2023-08-08T16:50:39;2.50;;;1.20;;
49870;SDS011;35767;52.322;9.122;2023-08-08T16:53:41;0.98;;;0.98;;
49870;SDS011;35767;52.322;9.122;2023-08-08T16:56:44;1.20;;;1.15;;
49870;SDS011;35767;52.322;9.122;2023-08-08T16:59:46;2.70;;;1.05;;
49870;SDS011;35767;52.322;9.122;2023-08-08T17:02:48;4.15;;;1.00;;
49870;SDS011;35767;52.322;9.122;2023-08-08T17:05:49;0.95;;;0.88;;
49870;SDS011;35767;52.322;9.122;2023-08-08T17:08:51;1.00;;;0.88;;
49870;SDS011;35767;52.322;9.122;2023-08-08T17:11:54;1.27;;;1.00;;
49870;SDS011;35767;52.322;9.122;2023-08-08T17:14:56;3.88;;;1.17;;
49870;SDS011;35767;52.322;9.122;2023-08-08T17:17:59;4.22;;;1.38;;
49870;SDS011;35767;52.322;9.122;2023-08-08T17:21:01;3.55;;;1.35;;
49870;SDS011;35767;52.322;9.122;2023-08-08T17:24:03;1.85;;;1.10;;
49870;SDS011;35767;52.322;9.122;2023-08-08T17:27:07;1.00;;;1.00;;
49870;SDS011;35767;52.322;9.122;2023-08-08T17:30:09;1.10;;;1.00;;
49870;SDS011;35767;52.322;9.122;2023-08-08T17:33:11;4.13;;;1.30;;
49870;SDS011;35767;52.322;9.122;2023-08-08T17:36:13;0.73;;;0.73;;
49870;SDS011;35767;52.322;9.122;2023-08-08T17:39:17;3.60;;;1.30;;
49870;SDS011;35767;52.322;9.122;2023-08-08T17:42:21;1.42;;;1.33;;
49870;SDS011;35767;52.322;9.122;2023-08-08T17:45:23;0.85;;;0.80;;
49870;SDS011;35767;52.322;9.122;2023-08-08T17:48:25;1.48;;;0.90;;
49870;SDS011;35767;52.322;9.122;2023-08-08T17:51:27;0.90;;;0.90;;
49870;SDS011;35767;52.322;9.122;2023-08-08T17:54:31;1.35;;;1.02;;
49870;SDS011;35767;52.322;9.122;2023-08-08T17:57:34;2.20;;;1.10;;
49870;SDS011;35767;52.322;9.122;2023-08-08T18:00:37;1.52;;;1.25;;
49870;SDS011;35767;52.322;9.122;2023-08-08T18:03:38;2.08;;;0.88;;
49870;SDS011;35767;52.322;9.122;2023-08-08T18:06:44;1.48;;;0.75;;
49870;SDS011;35767;52.322;9.122;2023-08-08T18:09:46;2.05;;;1.10;;
49870;SDS011;35767;52.322;9.122;2023-08-08T18:12:52;1.67;;;1.10;;
49870;SDS011;35767;52.322;9.122;2023-08-08T18:15:54;1.35;;;0.82;;
49870;SDS011;35767;52.322;9.122;2023-08-08T18:18:56;0.90;;;0.90;;
49870;SDS011;35767;52.322;9.122;2023-08-08T18:22:01;1.90;;;0.98;;
49870;SDS011;35767;52.322;9.122;2023-08-08T18:25:03;4.90;;;0.90;;
49870;SDS011;35767;52.322;9.122;2023-08-08T18:28:07;1.10;;;1.02;;
49870;SDS011;35767;52.322;9.122;2023-08-08T18:31:10;2.00;;;1.05;;
49870;SDS011;35767;52.322;9.122;2023-08-08T18:34:12;3.08;;;1.30;;
49870;SDS011;35767;52.322;9.122;2023-08-08T18:37:14;2.08;;;1.00;;
49870;SDS011;35767;52.322;9.122;2023-08-08T18:40:18;3.10;;;1.77;;
49870;SDS011;35767;52.322;9.122;2023-08-08T18:43:24;1.90;;;1.20;;
49870;SDS011;35767;52.322;9.122;2023-08-08T18:46:32;2.42;;;1.13;;
49870;SDS011;35767;52.322;9.122;2023-08-08T18:49:34;1.48;;;1.00;;
49870;SDS011;35767;52.322;9.122;2023-08-08T18:52:36;2.38;;;1.30;;
49870;SDS011;35767;52.322;9.122;2023-08-08T18:55:37;2.65;;;1.30;;
49870;SDS011;35767;52.322;9.122;2023-08-08T18:58:40;1.95;;;1.60;;
49870;SDS011;35767;52.322;9.122;2023-08-08T19:01:42;6.05;;;3.25;;
49870;SDS011;35767;52.322;9.122;2023-08-08T19:04:44;3.05;;;2.20;;
49870;SDS011;35767;52.322;9.122;2023-08-08T19:07:46;2.30;;;1.70;;
49870;SDS011;35767;52.322;9.122;2023-08-08T19:10:47;2.75;;;2.30;;
49870;SDS011;35767;52.322;9.122;2023-08-08T19:13:50;2.72;;;1.77;;
49870;SDS011;35767;52.322;9.122;2023-08-08T19:16:52;1.73;;;1.10;;
49870;SDS011;35767;52.322;9.122;2023-08-08T19:19:54;1.27;;;1.10;;
49870;SDS011;35767;52.322;9.122;2023-08-08T19:22:56;1.00;;;0.93;;
49870;SDS011;35767;52.322;9.122;2023-08-08T19:25:59;3.55;;;1.20;;
49870;SDS011;35767;52.322;9.122;2023-08-08T19:29:02;2.20;;;1.35;;
49870;SDS011;35767;52.322;9.122;2023-08-08T19:32:04;1.65;;;1.20;;
49870;SDS011;35767;52.322;9.122;2023-08-08T19:35:06;2.38;;;1.83;;